createdAt,value
2018-03-19T00:00:17.534Z,0
2018-03-19T00:01:27.384Z,0
2018-03-19T00:02:37.436Z,0
2018-03-19T00:03:47.220Z,0
2018-03-19T00:04:57.023Z,0
2018-03-19T00:06:06.844Z,0
2018-03-19T00:07:16.942Z,0
2018-03-19T00:08:27.008Z,0
2018-03-19T00:09:36.809Z,0
2018-03-19T00:10:46.338Z,0
2018-03-19T00:11:56.139Z,0
2018-03-19T00:13:05.466Z,0
2018-03-19T00:14:15.033Z,0
2018-03-19T00:15:24.820Z,0
2018-03-19T00:16:34.625Z,0
2018-03-19T00:17:44.691Z,0
2018-03-19T00:18:54.810Z,0
2018-03-19T00:20:04.076Z,0
2018-03-19T00:21:13.885Z,0
2018-03-19T00:22:23.671Z,0
2018-03-19T00:23:33.714Z,0
2018-03-19T00:24:43.554Z,0
2018-03-19T00:25:53.362Z,0
2018-03-19T00:27:03.476Z,0
2018-03-19T00:28:13.261Z,0
2018-03-19T00:29:22.533Z,0
2018-03-19T00:30:32.158Z,0
2018-03-19T00:31:42.209Z,0
2018-03-19T00:32:51.210Z,0
2018-03-19T00:34:01.010Z,0
2018-03-19T00:35:11.309Z,0
2018-03-19T00:36:21.381Z,0
2018-03-19T00:37:31.182Z,0
2018-03-19T00:38:40.978Z,0
2018-03-19T00:39:50.505Z,0
2018-03-19T00:41:00.312Z,0
2018-03-19T00:42:09.875Z,0
2018-03-19T00:43:19.676Z,0
2018-03-19T00:44:29.782Z,0
2018-03-19T00:45:39.570Z,0
2018-03-19T00:46:49.365Z,0
2018-03-19T00:47:59.430Z,0
2018-03-19T00:49:09.499Z,0
2018-03-19T00:50:19.307Z,0
2018-03-19T00:51:29.102Z,0
2018-03-19T00:52:38.378Z,0
2018-03-19T00:53:48.220Z,0
2018-03-19T00:54:57.757Z,0
2018-03-19T00:56:07.542Z,0
2018-03-19T00:57:17.598Z,0
2018-03-19T00:58:27.656Z,0
2018-03-19T00:59:37.756Z,0
2018-03-19T01:00:47.815Z,0
2018-03-19T01:01:57.099Z,0
2018-03-19T01:03:07.154Z,0
2018-03-19T01:04:17.272Z,0
2018-03-19T01:05:27.453Z,0
2018-03-19T01:06:37.512Z,0
2018-03-19T01:07:47.567Z,0
2018-03-19T01:08:57.349Z,0
2018-03-19T01:10:07.141Z,0
2018-03-19T01:11:17.004Z,0
2018-03-19T01:12:27.075Z,0
2018-03-19T01:13:36.881Z,0
2018-03-19T01:14:46.949Z,0
2018-03-19T01:15:57.017Z,0
2018-03-19T01:17:07.057Z,0
2018-03-19T01:18:16.583Z,0
2018-03-19T01:19:26.479Z,0
2018-03-19T01:20:36.555Z,0
2018-03-19T01:21:46.350Z,0
2018-03-19T01:22:56.196Z,0
2018-03-19T01:24:05.979Z,0
2018-03-19T01:25:15.509Z,0
2018-03-19T01:26:25.308Z,0
2018-03-19T01:27:35.112Z,0
2018-03-19T01:28:44.964Z,0
2018-03-19T01:29:55.011Z,0
2018-03-19T01:31:04.541Z,0
2018-03-19T01:32:14.594Z,0
2018-03-19T01:33:24.116Z,0
2018-03-19T01:34:34.230Z,0
2018-03-19T01:35:44.019Z,0
2018-03-19T01:36:54.070Z,0
2018-03-19T01:38:03.863Z,0
2018-03-19T01:39:13.139Z,0
2018-03-19T01:40:23.215Z,0
2018-03-19T01:41:32.983Z,0
2018-03-19T01:42:43.045Z,0
2018-03-19T01:43:52.839Z,0
2018-03-19T01:45:02.951Z,0
2018-03-19T01:46:13.050Z,0
2018-03-19T01:47:23.119Z,0
2018-03-19T01:48:32.895Z,0
2018-03-19T01:49:42.694Z,0
2018-03-19T01:50:52.763Z,0
2018-03-19T01:52:02.816Z,0
2018-03-19T01:53:12.882Z,0
2018-03-19T01:54:22.696Z,0
2018-03-19T01:55:32.746Z,0
2018-03-19T01:56:42.280Z,0
2018-03-19T01:57:51.850Z,0
2018-03-19T01:59:01.906Z,0
2018-03-19T02:00:11.971Z,0
2018-03-19T02:01:21.761Z,0
2018-03-19T02:02:31.810Z,0
2018-03-19T02:03:41.334Z,0
2018-03-19T02:04:51.398Z,0
2018-03-19T02:06:01.460Z,0
2018-03-19T02:07:11.514Z,0
2018-03-19T02:08:21.572Z,0
2018-03-19T02:09:31.641Z,0
2018-03-19T02:10:41.686Z,0
2018-03-19T02:11:51.494Z,0
2018-03-19T02:13:01.582Z,0
2018-03-19T02:14:11.624Z,0
2018-03-19T02:15:21.684Z,0
2018-03-19T02:16:31.746Z,0
2018-03-19T02:17:41.809Z,0
2018-03-19T02:18:51.332Z,0
2018-03-19T02:20:01.126Z,0
2018-03-19T02:21:11.188Z,0
2018-03-19T02:22:20.976Z,0
2018-03-19T02:23:31.055Z,0
2018-03-19T02:24:40.846Z,0
2018-03-19T02:25:50.911Z,0
2018-03-19T02:27:00.742Z,0
2018-03-19T02:28:10.790Z,0
2018-03-19T02:29:20.839Z,0
2018-03-19T02:30:30.901Z,0
2018-03-19T02:31:40.956Z,0
2018-03-19T02:32:51.020Z,0
2018-03-19T02:34:01.173Z,0
2018-03-19T02:35:10.708Z,0
2018-03-19T02:36:20.782Z,0
2018-03-19T02:37:30.594Z,0
2018-03-19T02:38:40.726Z,0
2018-03-19T02:39:50.783Z,0
2018-03-19T02:41:00.838Z,0
2018-03-19T02:42:10.892Z,0
2018-03-19T02:43:20.711Z,0
2018-03-19T02:44:30.854Z,0
2018-03-19T02:45:40.962Z,0
2018-03-19T02:46:50.774Z,0
2018-03-19T02:48:00.633Z,0
2018-03-19T02:49:10.158Z,0
2018-03-19T02:50:19.954Z,0
2018-03-19T02:51:30.019Z,0
2018-03-19T02:52:40.113Z,0
2018-03-19T02:53:49.637Z,0
2018-03-19T02:54:59.710Z,0
2018-03-19T02:56:09.388Z,0
2018-03-19T02:57:19.451Z,0
2018-03-19T02:58:28.841Z,0
2018-03-19T02:59:38.371Z,0
2018-03-19T03:00:47.895Z,0
2018-03-19T03:01:57.993Z,0
2018-03-19T03:03:07.523Z,0
2018-03-19T03:04:17.305Z,0
2018-03-19T03:05:26.840Z,0
2018-03-19T03:06:36.384Z,0
2018-03-19T03:07:46.450Z,0
2018-03-19T03:39:45.226Z,0
2018-03-19T03:40:55.295Z,0
2018-03-19T03:42:05.094Z,0
2018-03-19T03:43:14.914Z,0
2018-03-19T03:44:24.425Z,0
2018-03-19T03:45:34.526Z,0
2018-03-19T03:46:44.304Z,0
2018-03-19T03:47:54.097Z,0
2018-03-19T03:49:04.138Z,0
2018-03-19T03:50:13.959Z,0
2018-03-19T03:51:23.809Z,0
2018-03-19T03:52:33.624Z,0
2018-03-19T03:53:43.408Z,0
2018-03-19T03:54:53.464Z,0
2018-03-19T03:56:03.521Z,0
2018-03-19T03:57:13.672Z,0
2018-03-19T03:58:23.724Z,0
2018-03-19T03:59:33.520Z,0
2018-03-19T04:00:43.335Z,0
2018-03-19T04:01:53.388Z,0
2018-03-19T04:03:02.971Z,0
2018-03-19T04:04:13.023Z,0
2018-03-19T04:05:23.073Z,0
2018-03-19T04:06:32.876Z,0
2018-03-19T04:07:42.935Z,0
2018-03-19T04:08:53.041Z,0
2018-03-19T04:10:03.088Z,0
2018-03-19T04:11:13.134Z,0
2018-03-19T04:12:23.195Z,0
2018-03-19T04:13:33.245Z,0
2018-03-19T04:14:42.763Z,0
2018-03-19T04:15:52.821Z,0
2018-03-19T04:17:02.347Z,0
2018-03-19T04:18:12.407Z,0
2018-03-19T04:19:22.482Z,0
2018-03-19T04:20:32.061Z,0
2018-03-19T04:21:42.105Z,0
2018-03-19T04:22:51.898Z,0
2018-03-19T04:24:01.961Z,0
2018-03-19T04:25:12.042Z,0
2018-03-19T04:26:21.830Z,0
2018-03-19T04:27:31.885Z,0
2018-03-19T04:28:41.938Z,0
2018-03-19T04:29:52.011Z,0
2018-03-19T04:31:01.828Z,0
2018-03-19T04:32:11.129Z,0
2018-03-19T04:33:20.908Z,0
2018-03-19T04:34:30.486Z,0
2018-03-19T04:35:40.273Z,0
2018-03-19T04:36:50.072Z,4
2018-03-19T04:37:59.996Z,4
2018-03-19T04:39:09.771Z,0
2018-03-19T04:40:19.830Z,4
2018-03-19T04:41:29.618Z,4
2018-03-19T04:42:39.659Z,4
2018-03-19T04:43:49.451Z,4
2018-03-19T04:44:59.518Z,4
2018-03-19T04:46:09.602Z,4
2018-03-19T04:47:19.670Z,8
2018-03-19T04:48:29.725Z,8
2018-03-19T04:49:39.806Z,12
2018-03-19T04:50:49.348Z,12
2018-03-19T04:51:58.867Z,16
2018-03-19T04:53:08.918Z,20
2018-03-19T04:54:18.986Z,24
2018-03-19T04:55:29.031Z,28
2018-03-19T04:56:39.095Z,32
2018-03-19T04:57:48.991Z,36
2018-03-19T04:58:58.803Z,44
2018-03-19T05:00:08.324Z,48
2018-03-19T05:01:18.429Z,52
2018-03-19T05:02:28.488Z,56
2018-03-19T05:03:38.527Z,64
2018-03-19T05:04:48.583Z,72
2018-03-19T05:05:58.656Z,80
2018-03-19T05:07:08.495Z,84
2018-03-19T05:08:18.285Z,96
2018-03-19T05:09:28.334Z,108
2018-03-19T05:10:38.414Z,116
2018-03-19T05:11:48.193Z,124
2018-03-19T05:12:58.044Z,136
2018-03-19T05:14:08.100Z,144
2018-03-19T05:15:18.152Z,156
2018-03-19T05:16:27.688Z,172
2018-03-19T05:17:37.802Z,192
2018-03-19T05:18:47.645Z,208
2018-03-19T05:19:57.689Z,228
2018-03-19T05:21:07.465Z,244
2018-03-19T05:22:17.263Z,256
2018-03-19T05:23:27.380Z,280
2018-03-19T05:24:36.634Z,304
2018-03-19T05:25:46.696Z,328
2018-03-19T05:26:56.499Z,344
2018-03-19T05:28:06.276Z,356
2018-03-19T05:29:16.061Z,364
2018-03-19T05:30:26.099Z,368
2018-03-19T05:31:35.902Z,376
2018-03-19T05:32:45.697Z,392
2018-03-19T05:33:55.217Z,408
2018-03-19T05:35:05.015Z,420
2018-03-19T05:36:15.130Z,436
2018-03-19T05:37:24.929Z,452
2018-03-19T05:38:35.044Z,468
2018-03-19T05:39:45.143Z,488
2018-03-19T05:40:54.930Z,512
2018-03-19T05:42:04.992Z,528
2018-03-19T05:43:14.778Z,556
2018-03-19T05:44:24.579Z,592
2018-03-19T05:45:34.627Z,640
2018-03-19T05:46:44.739Z,688
2018-03-19T05:47:54.821Z,732
2018-03-19T05:49:04.887Z,772
2018-03-19T05:50:14.472Z,808
2018-03-19T05:51:24.533Z,856
2018-03-19T05:52:34.377Z,924
2018-03-19T05:53:44.478Z,992
2018-03-19T05:54:54.286Z,1056
2018-03-19T05:56:04.341Z,1104
2018-03-19T05:57:14.185Z,1144
2018-03-19T05:58:24.076Z,1192
2018-03-19T05:59:33.889Z,1236
2018-03-19T06:00:43.955Z,1272
2018-03-19T06:01:53.750Z,1308
2018-03-19T06:03:03.813Z,1352
2018-03-19T06:04:13.871Z,1428
2018-03-19T06:05:23.940Z,1492
2018-03-19T06:06:33.984Z,1560
2018-03-19T06:07:44.039Z,1608
2018-03-19T06:08:53.581Z,1636
2018-03-19T06:10:03.379Z,1668
2018-03-19T06:11:12.911Z,1708
2018-03-19T06:12:22.974Z,1728
2018-03-19T06:13:33.097Z,1720
2018-03-19T06:14:42.571Z,1692
2018-03-19T06:15:52.378Z,1668
2018-03-19T06:17:02.169Z,1668
2018-03-19T06:18:12.222Z,1688
2018-03-19T06:19:22.281Z,1724
2018-03-19T06:20:32.339Z,1764
2018-03-19T06:21:41.871Z,1816
2018-03-19T06:22:51.934Z,1872
2018-03-19T06:24:01.724Z,1912
2018-03-19T06:25:11.794Z,1940
2018-03-19T06:26:21.871Z,1984
2018-03-19T06:27:31.794Z,2044
2018-03-19T06:28:41.576Z,2112
2018-03-19T06:29:51.629Z,2156
2018-03-19T06:31:01.160Z,2172
2018-03-19T06:32:11.215Z,2184
2018-03-19T06:33:21.322Z,2204
2018-03-19T06:34:31.113Z,2220
2018-03-19T06:35:40.902Z,2212
2018-03-19T06:36:50.967Z,2188
2018-03-19T06:38:00.763Z,2164
2018-03-19T06:39:10.878Z,2116
2018-03-19T06:40:20.727Z,2060
2018-03-19T06:41:30.807Z,2008
2018-03-19T06:42:40.872Z,2000
2018-03-19T06:43:50.939Z,2040
2018-03-19T06:45:01.023Z,2100
2018-03-19T06:46:11.109Z,2156
2018-03-19T06:47:20.894Z,2216
2018-03-19T06:48:30.958Z,2256
2018-03-19T06:49:40.735Z,2292
2018-03-19T06:50:50.781Z,2324
2018-03-19T06:52:00.839Z,2340
2018-03-19T06:53:10.911Z,2340
2018-03-19T06:54:20.995Z,2336
2018-03-19T06:55:31.115Z,2356
2018-03-19T06:56:40.959Z,2392
2018-03-19T06:57:51.011Z,2444
2018-03-19T06:59:00.541Z,2508
2018-03-19T07:00:10.326Z,2580
2018-03-19T07:01:20.382Z,2664
2018-03-19T07:02:29.912Z,2752
2018-03-19T07:03:40.028Z,2832
2018-03-19T07:04:50.073Z,2908
2018-03-19T07:06:00.138Z,2992
2018-03-19T07:07:10.195Z,3068
2018-03-19T07:08:20.042Z,3136
2018-03-19T07:09:29.867Z,3196
2018-03-19T07:10:39.685Z,3252
2018-03-19T07:11:48.952Z,3292
2018-03-19T07:12:58.758Z,3328
2018-03-19T07:14:08.810Z,3384
2018-03-19T07:15:18.617Z,3452
2018-03-19T07:16:28.166Z,3520
2018-03-19T07:17:37.701Z,3560
2018-03-19T07:18:47.778Z,3580
2018-03-19T07:19:57.827Z,3568
2018-03-19T07:21:07.872Z,3528
2018-03-19T07:22:17.940Z,3520
2018-03-19T07:23:28.004Z,3576
2018-03-19T07:24:38.062Z,3704
2018-03-19T07:25:48.287Z,3900
2018-03-19T07:26:58.350Z,4088
2018-03-19T07:28:08.147Z,4184
2018-03-19T07:29:18.200Z,4180
2018-03-19T07:30:28.254Z,4148
2018-03-19T07:31:38.350Z,4064
2018-03-19T07:32:48.133Z,3976
2018-03-19T07:33:58.335Z,3896
2018-03-19T07:35:08.399Z,3800
2018-03-19T07:36:18.491Z,3736
2018-03-19T07:37:28.803Z,3744
2018-03-19T07:38:39.108Z,3836
2018-03-19T07:39:49.300Z,3980
2018-03-19T07:40:59.676Z,4128
2018-03-19T07:42:09.979Z,4240
2018-03-19T07:43:20.203Z,4264
2018-03-19T07:44:30.126Z,4268
2018-03-19T07:45:39.685Z,4304
2018-03-19T07:46:49.739Z,4364
2018-03-19T07:47:59.797Z,4372
2018-03-19T07:49:09.646Z,4336
2018-03-19T07:50:19.718Z,4268
2018-03-19T07:51:29.358Z,4212
2018-03-19T07:52:39.173Z,4176
2018-03-19T07:53:48.977Z,4200
2018-03-19T07:54:59.044Z,4276
2018-03-19T07:56:08.890Z,4392
2018-03-19T07:57:18.829Z,4564
2018-03-19T07:58:28.635Z,4800
2018-03-19T07:59:38.439Z,4960
2018-03-19T08:00:48.248Z,5028
2018-03-19T08:01:57.788Z,4972
2018-03-19T08:03:07.840Z,4828
2018-03-19T08:04:17.661Z,4664
2018-03-19T08:05:27.462Z,4460
2018-03-19T08:06:37.279Z,4232
2018-03-19T08:07:47.078Z,4068
2018-03-19T08:08:57.131Z,3980
2018-03-19T08:10:07.190Z,4020
2018-03-19T08:11:16.973Z,4152
2018-03-19T08:12:26.918Z,4296
2018-03-19T08:13:36.770Z,4396
2018-03-19T08:14:46.802Z,4508
2018-03-19T08:15:56.864Z,4540
2018-03-19T08:17:06.403Z,4532
2018-03-19T08:18:16.540Z,4516
2018-03-19T08:19:26.658Z,4488
2018-03-19T08:20:36.450Z,4516
2018-03-19T08:21:46.252Z,4552
2018-03-19T08:22:56.528Z,4604
2018-03-19T08:24:06.307Z,4620
2018-03-19T08:25:16.101Z,4644
2018-03-19T08:26:25.906Z,4636
2018-03-19T08:27:35.748Z,4636
2018-03-19T08:28:45.542Z,4676
2018-03-19T08:29:55.589Z,4692
2018-03-19T08:31:05.671Z,4736
2018-03-19T08:32:15.196Z,4856
2018-03-19T08:33:25.037Z,5048
2018-03-19T08:34:34.836Z,5204
2018-03-19T08:35:44.924Z,5300
2018-03-19T08:36:54.985Z,5344
2018-03-19T08:38:04.506Z,5376
2018-03-19T08:39:14.609Z,5408
2018-03-19T08:40:24.767Z,5368
2018-03-19T08:41:34.106Z,5308
2018-03-19T08:42:43.902Z,5184
2018-03-19T08:43:53.979Z,5008
2018-03-19T08:45:04.053Z,4852
2018-03-19T08:46:13.853Z,4844
2018-03-19T08:47:23.380Z,4940
2018-03-19T08:48:33.269Z,5096
2018-03-19T08:49:43.070Z,5256
2018-03-19T08:50:53.178Z,5396
2018-03-19T08:52:02.988Z,5520
2018-03-19T08:53:13.069Z,5608
2018-03-19T08:54:23.137Z,5660
2018-03-19T08:55:32.670Z,5668
2018-03-19T08:56:42.820Z,5620
2018-03-19T08:57:52.361Z,5464
2018-03-19T08:59:02.419Z,5244
2018-03-19T09:00:12.527Z,5044
2018-03-19T09:01:22.591Z,4900
2018-03-19T09:02:32.410Z,4716
2018-03-19T09:03:42.217Z,4600
2018-03-19T09:04:52.301Z,4564
2018-03-19T09:06:02.089Z,4532
2018-03-19T09:07:12.053Z,4556
2018-03-19T09:08:21.921Z,4636
2018-03-19T09:09:31.977Z,4760
2018-03-19T09:10:42.208Z,4872
2018-03-19T09:11:52.257Z,4920
2018-03-19T09:13:01.799Z,5000
2018-03-19T09:14:11.653Z,5116
2018-03-19T09:15:21.456Z,5224
2018-03-19T09:16:31.241Z,5324
2018-03-19T09:17:40.786Z,5392
2018-03-19T09:18:50.919Z,5400
2018-03-19T09:20:01.077Z,5428
2018-03-19T09:21:10.628Z,5416
2018-03-19T09:22:20.686Z,5368
2018-03-19T09:23:30.814Z,5388
2018-03-19T09:24:40.616Z,5520
2018-03-19T09:25:50.469Z,5640
2018-03-19T09:27:00.285Z,5812
2018-03-19T09:28:10.341Z,6012
2018-03-19T09:29:20.150Z,6148
2018-03-19T09:30:29.946Z,6288
2018-03-19T09:31:39.212Z,6452
2018-03-19T09:32:49.067Z,6540
2018-03-19T09:33:59.138Z,6644
2018-03-19T09:35:09.083Z,6692
2018-03-19T09:36:19.037Z,6724
2018-03-19T09:37:28.562Z,6728
2018-03-19T09:38:38.359Z,6760
2018-03-19T09:39:48.435Z,6792
2018-03-19T09:40:58.250Z,6848
2018-03-19T09:42:08.093Z,6944
2018-03-19T09:43:17.894Z,7084
2018-03-19T09:44:27.682Z,7232
2018-03-19T09:45:37.752Z,7348
2018-03-19T09:46:47.560Z,7388
2018-03-19T09:47:57.365Z,7408
2018-03-19T09:49:07.172Z,7404
2018-03-19T09:50:16.970Z,7464
2018-03-19T09:51:27.020Z,7560
2018-03-19T09:52:37.095Z,7624
2018-03-19T09:53:46.930Z,7660
2018-03-19T09:54:56.724Z,7692
2018-03-19T09:56:06.824Z,7752
2018-03-19T09:57:16.889Z,7764
2018-03-19T09:58:26.700Z,7756
2018-03-19T09:59:36.531Z,7816
2018-03-19T10:00:46.071Z,7884
2018-03-19T10:01:55.924Z,7964
2018-03-19T10:03:05.455Z,7920
2018-03-19T10:04:15.258Z,7728
2018-03-19T10:05:25.320Z,7480
2018-03-19T10:06:34.845Z,7124
2018-03-19T10:07:44.901Z,6956
2018-03-19T10:08:55.010Z,6908
2018-03-19T10:10:05.096Z,6872
2018-03-19T10:11:14.639Z,6752
2018-03-19T10:12:24.479Z,6744
2018-03-19T10:13:34.613Z,6876
2018-03-19T10:14:44.702Z,7000
2018-03-19T10:15:54.764Z,7044
2018-03-19T10:17:04.570Z,6936
2018-03-19T10:18:14.632Z,6780
2018-03-19T10:19:24.237Z,6608
2018-03-19T10:20:33.789Z,6484
2018-03-19T10:21:43.707Z,6452
2018-03-19T10:22:52.997Z,6560
2018-03-19T10:24:02.796Z,6720
2018-03-19T10:25:12.319Z,6864
2018-03-19T10:26:22.385Z,6872
2018-03-19T10:27:32.512Z,6788
2018-03-19T10:28:42.617Z,6692
2018-03-19T10:29:52.726Z,6628
2018-03-19T10:31:02.534Z,6628
2018-03-19T10:32:12.333Z,6832
2018-03-19T10:33:22.429Z,7136
2018-03-19T10:34:32.508Z,7176
2018-03-19T10:35:42.321Z,7044
2018-03-19T10:36:52.126Z,6880
2018-03-19T10:38:02.179Z,6840
2018-03-19T10:39:11.975Z,6908
2018-03-19T10:40:21.800Z,7156
2018-03-19T10:41:31.877Z,7304
2018-03-19T10:42:41.992Z,7540
2018-03-19T10:43:52.059Z,7932
2018-03-19T10:45:02.100Z,7408
2018-03-19T10:46:11.639Z,7292
2018-03-19T10:47:21.725Z,7516
2018-03-19T10:48:31.830Z,8072
2018-03-19T10:49:41.896Z,7924
2018-03-19T10:50:51.958Z,7804
2018-03-19T10:52:01.757Z,7844
2018-03-19T10:53:11.824Z,8084
2018-03-19T10:54:21.941Z,8412
2018-03-19T10:55:32.014Z,8196
2018-03-19T10:56:42.061Z,7564
2018-03-19T10:57:52.158Z,7208
2018-03-19T10:59:01.959Z,6976
2018-03-19T11:00:11.495Z,6732
2018-03-19T11:01:21.657Z,6544
2018-03-19T11:02:31.808Z,6412
2018-03-19T11:03:41.596Z,6236
2018-03-19T11:04:51.170Z,6084
2018-03-19T11:06:01.005Z,5932
2018-03-19T11:07:10.817Z,5724
2018-03-19T11:08:20.870Z,5488
2018-03-19T11:09:30.736Z,5292
2018-03-19T11:10:40.829Z,5232
2018-03-19T11:11:51.074Z,5236
2018-03-19T11:13:00.894Z,5284
2018-03-19T11:14:11.002Z,5332
2018-03-19T11:15:21.055Z,5352
2018-03-19T11:16:31.145Z,5348
2018-03-19T11:17:41.251Z,5320
2018-03-19T11:18:51.055Z,5276
2018-03-19T11:20:01.144Z,5300
2018-03-19T11:21:11.330Z,5308
2018-03-19T11:22:21.408Z,5364
2018-03-19T11:23:31.482Z,5448
2018-03-19T11:24:41.287Z,5480
2018-03-19T11:25:50.820Z,5544
2018-03-19T11:27:00.911Z,5696
2018-03-19T11:28:10.972Z,5832
2018-03-19T11:29:20.788Z,5888
2018-03-19T11:30:30.186Z,5952
2018-03-19T11:31:40.250Z,6088
2018-03-19T11:32:50.292Z,6308
2018-03-19T11:34:00.358Z,6488
2018-03-19T11:35:10.202Z,6628
2018-03-19T11:36:20.268Z,6452
2018-03-19T11:37:30.067Z,6300
2018-03-19T11:38:39.874Z,6208
2018-03-19T11:39:49.665Z,6064
2018-03-19T11:40:59.742Z,5804
2018-03-19T11:42:09.602Z,5580
2018-03-19T11:43:19.401Z,5584
2018-03-19T11:44:29.182Z,5704
2018-03-19T11:45:39.240Z,5764
2018-03-19T11:46:48.787Z,5716
2018-03-19T11:47:58.591Z,5656
2018-03-19T11:49:08.665Z,5556
2018-03-19T11:50:18.730Z,5500
2018-03-19T11:51:28.795Z,5416
2018-03-19T11:52:38.588Z,5352
2018-03-19T11:53:48.657Z,5324
2018-03-19T11:54:58.474Z,5372
2018-03-19T11:56:08.275Z,5320
2018-03-19T11:57:18.086Z,5264
2018-03-19T11:58:28.159Z,5208
2018-03-19T11:59:37.955Z,5180
2018-03-19T12:00:47.488Z,5244
2018-03-19T12:01:57.549Z,5312
2018-03-19T12:03:07.363Z,5376
2018-03-19T12:04:17.162Z,5464
2018-03-19T12:05:26.959Z,5552
2018-03-19T12:06:36.514Z,5684
2018-03-19T12:07:46.298Z,5796
2018-03-19T12:08:56.095Z,5800
2018-03-19T12:10:05.618Z,5720
2018-03-19T12:11:15.148Z,5708
2018-03-19T12:12:25.394Z,5772
2018-03-19T12:13:35.202Z,5828
2018-03-19T12:14:44.766Z,5844
2018-03-19T12:15:54.874Z,5868
2018-03-19T12:17:04.412Z,5864
2018-03-19T12:18:14.213Z,5736
2018-03-19T12:19:24.034Z,5564
2018-03-19T12:20:34.106Z,5472
2018-03-19T12:21:43.985Z,5452
2018-03-19T12:22:54.056Z,5344
2018-03-19T12:24:03.843Z,5320
2018-03-19T12:25:13.898Z,5288
2018-03-19T12:26:23.702Z,5204
2018-03-19T12:27:33.815Z,5100
2018-03-19T12:28:43.609Z,5052
2018-03-19T12:29:53.142Z,5164
2018-03-19T12:31:03.205Z,5336
2018-03-19T12:32:13.265Z,5520
2018-03-19T12:33:23.122Z,5692
2018-03-19T12:34:32.955Z,5744
2018-03-19T12:35:43.010Z,5680
2018-03-19T12:36:52.818Z,5512
2018-03-19T12:38:02.609Z,5284
2018-03-19T12:39:12.145Z,5020
2018-03-19T12:40:21.943Z,4812
2018-03-19T12:41:31.464Z,4584
2018-03-19T12:42:41.522Z,4384
2018-03-19T12:43:51.578Z,4340
2018-03-19T12:45:01.115Z,4352
2018-03-19T12:46:10.906Z,4336
2018-03-19T12:47:20.960Z,4304
2018-03-19T12:48:31.011Z,4204
2018-03-19T12:49:40.818Z,4084
2018-03-19T12:50:50.882Z,3992
2018-03-19T12:52:00.980Z,3932
2018-03-19T12:53:10.515Z,3848
2018-03-19T12:54:20.072Z,3832
2018-03-19T12:55:29.911Z,3872
2018-03-19T12:56:39.794Z,3968
2018-03-19T12:57:49.057Z,4076
2018-03-19T12:58:58.858Z,4128
2018-03-19T13:00:08.966Z,4148
2018-03-19T13:01:18.767Z,4172
2018-03-19T13:02:28.311Z,4224
2018-03-19T13:03:38.166Z,4220
2018-03-19T13:04:48.224Z,4232
2018-03-19T13:05:58.304Z,4232
2018-03-19T13:07:08.144Z,4192
2018-03-19T13:08:18.312Z,4132
2018-03-19T13:09:28.367Z,4068
2018-03-19T13:10:38.157Z,3956
2018-03-19T13:11:48.223Z,3908
2018-03-19T13:12:58.451Z,3892
2018-03-19T13:14:08.008Z,3828
2018-03-19T13:15:18.066Z,3724
2018-03-19T13:16:27.618Z,3628
2018-03-19T13:17:37.703Z,3532
2018-03-19T13:18:47.497Z,3424
2018-03-19T13:19:57.309Z,3348
2018-03-19T13:21:07.373Z,3320
2018-03-19T13:22:16.919Z,3268
2018-03-19T13:23:26.987Z,3224
2018-03-19T13:24:37.213Z,3148
2018-03-19T13:25:47.409Z,3140
2018-03-19T13:26:57.214Z,3200
2018-03-19T13:28:07.284Z,3276
2018-03-19T13:29:16.816Z,3340
2018-03-19T13:30:26.342Z,3404
2018-03-19T13:31:36.182Z,3436
2018-03-19T13:32:45.758Z,3464
2018-03-19T13:33:55.812Z,3500
2018-03-19T13:35:05.619Z,3568
2018-03-19T13:36:15.452Z,3660
2018-03-19T13:37:24.980Z,3704
2018-03-19T13:38:35.040Z,3716
2018-03-19T13:39:45.108Z,3732
2018-03-19T13:40:55.182Z,3664
2018-03-19T13:42:05.253Z,3592
2018-03-19T13:43:15.075Z,3572
2018-03-19T13:44:25.127Z,3604
2018-03-19T13:45:35.214Z,3520
2018-03-19T13:46:44.753Z,3392
2018-03-19T13:47:54.816Z,3336
2018-03-19T13:49:04.907Z,3336
2018-03-19T13:50:14.977Z,3396
2018-03-19T13:51:24.785Z,3512
2018-03-19T13:52:34.911Z,3656
2018-03-19T13:53:44.842Z,3772
2018-03-19T13:54:54.984Z,3832
2018-03-19T13:56:05.057Z,3816
2018-03-19T13:57:14.595Z,3764
2018-03-19T13:58:24.384Z,3680
2018-03-19T13:59:34.454Z,3604
2018-03-19T14:00:44.049Z,3552
2018-03-19T14:01:54.107Z,3480
2018-03-19T14:03:03.908Z,3352
2018-03-19T14:04:13.707Z,3280
2018-03-19T14:05:23.797Z,3244
2018-03-19T14:06:33.880Z,3232
2018-03-19T14:07:43.958Z,3204
2018-03-19T14:08:53.506Z,3152
2018-03-19T14:10:03.574Z,3072
2018-03-19T14:11:13.655Z,3064
2018-03-19T14:12:23.471Z,3012
2018-03-19T14:13:32.813Z,2888
2018-03-19T14:14:42.096Z,2760
2018-03-19T14:15:52.172Z,2620
2018-03-19T14:17:02.142Z,2492
2018-03-19T14:18:12.142Z,2408
2018-03-19T14:19:22.190Z,2336
2018-03-19T14:20:32.268Z,2308
2018-03-19T14:21:42.435Z,2292
2018-03-19T14:22:52.255Z,2264
2018-03-19T14:24:02.058Z,2236
2018-03-19T14:25:12.123Z,2248
2018-03-19T14:26:21.936Z,2256
2018-03-19T14:27:32.126Z,2220
2018-03-19T14:28:42.397Z,2156
2018-03-19T14:29:52.479Z,2096
2018-03-19T14:31:02.316Z,2036
2018-03-19T14:32:11.866Z,1992
2018-03-19T14:33:21.928Z,1956
2018-03-19T14:34:31.989Z,1896
2018-03-19T14:35:41.780Z,1924
2018-03-19T14:36:51.321Z,2000
2018-03-19T14:38:01.392Z,2052
2018-03-19T14:39:11.457Z,2080
2018-03-19T14:40:21.273Z,2064
2018-03-19T14:41:31.083Z,2024
2018-03-19T14:42:40.907Z,2004
2018-03-19T14:43:50.975Z,1972
2018-03-19T14:45:01.037Z,1892
2018-03-19T14:46:10.826Z,1792
2018-03-19T14:47:20.629Z,1696
2018-03-19T14:48:30.755Z,1632
2018-03-19T14:49:40.874Z,1600
2018-03-19T14:50:50.903Z,1556
2018-03-19T14:52:00.090Z,1492
2018-03-19T14:53:10.153Z,1420
2018-03-19T14:54:19.680Z,1372
2018-03-19T14:55:29.540Z,1340
2018-03-19T14:56:39.099Z,1328
2018-03-19T14:57:48.935Z,1336
2018-03-19T14:58:58.462Z,1372
2018-03-19T15:00:08.571Z,1380
2018-03-19T15:01:18.384Z,1348
2018-03-19T15:02:28.450Z,1292
2018-03-19T15:03:38.245Z,1264
2018-03-19T15:04:47.506Z,1220
2018-03-19T15:05:57.373Z,1164
2018-03-19T15:07:07.175Z,1108
2018-03-19T15:08:17.247Z,1064
2018-03-19T15:09:26.788Z,1032
2018-03-19T15:10:36.887Z,1036
2018-03-19T15:11:46.947Z,1068
2018-03-19T15:12:56.231Z,1096
2018-03-19T15:14:06.298Z,1112
2018-03-19T15:15:16.380Z,1100
2018-03-19T15:16:25.991Z,1092
2018-03-19T15:17:35.775Z,1092
2018-03-19T15:18:45.575Z,1108
2018-03-19T15:19:55.657Z,1112
2018-03-19T15:21:05.743Z,1104
2018-03-19T15:22:15.812Z,1072
2018-03-19T15:23:25.693Z,1040
2018-03-19T15:24:35.754Z,1016
2018-03-19T15:25:45.827Z,1000
2018-03-19T15:26:55.380Z,984
2018-03-19T15:28:05.421Z,964
2018-03-19T15:29:15.220Z,936
2018-03-19T15:30:26.095Z,900
2018-03-19T15:31:35.940Z,860
2018-03-19T15:32:46.895Z,828
2018-03-19T15:33:57.654Z,792
2018-03-19T15:35:07.706Z,756
2018-03-19T15:36:17.582Z,720
2018-03-19T15:37:27.119Z,684
2018-03-19T15:38:37.198Z,660
2018-03-19T15:39:47.297Z,632
2018-03-19T15:40:56.851Z,608
2018-03-19T15:42:06.673Z,592
2018-03-19T15:43:16.227Z,588
2018-03-19T15:44:26.294Z,580
2018-03-19T15:45:36.113Z,572
2018-03-19T15:46:46.198Z,560
2018-03-19T15:47:56.325Z,556
2018-03-19T15:49:06.206Z,548
2018-03-19T15:50:15.777Z,540
2018-03-19T15:51:25.872Z,540
2018-03-19T15:52:35.681Z,536
2018-03-19T15:53:45.821Z,540
2018-03-19T15:54:55.634Z,536
2018-03-19T15:56:05.187Z,524
2018-03-19T15:57:14.995Z,512
2018-03-19T15:58:24.812Z,500
2018-03-19T15:59:34.929Z,496
2018-03-19T16:00:44.814Z,488
2018-03-19T16:01:54.903Z,492
2018-03-19T16:03:04.989Z,492
2018-03-19T16:04:15.069Z,492
2018-03-19T16:05:25.169Z,496
2018-03-19T16:06:35.242Z,488
2018-03-19T16:07:45.320Z,468
2018-03-19T16:08:55.370Z,452
2018-03-19T16:10:05.160Z,432
2018-03-19T16:11:14.998Z,416
2018-03-19T16:12:25.213Z,400
2018-03-19T16:13:35.008Z,380
2018-03-19T16:14:45.130Z,360
2018-03-19T16:15:54.423Z,332
2018-03-19T16:17:04.287Z,312
2018-03-19T16:18:14.123Z,300
2018-03-19T16:19:23.946Z,284
2018-03-19T16:20:33.749Z,284
2018-03-19T16:21:43.860Z,284
2018-03-19T16:22:54.169Z,284
2018-03-19T16:24:03.724Z,288
2018-03-19T16:25:13.611Z,280
2018-03-19T16:26:23.695Z,272
2018-03-19T16:27:33.607Z,268
2018-03-19T16:28:43.689Z,264
2018-03-19T16:29:53.502Z,252
2018-03-19T16:31:03.318Z,248
2018-03-19T16:32:13.395Z,240